PWSweather.com
Personal Weather Stations
Station Observations
J24K28P63
Vysocina, PocatkyCZ 39464

VysocinaPocatkyCZ 39464

Lat: 49.2594238, Lon: 15.2331769

Elevation: 2011

Station Type: Vantage Pro2+

http://meteo-jirkalina.com

High Low Average
Temperature 75.3°F24.1°C 59.6°F15.3°C 70.0°F21.1°C
Dew Point 62.8°F17.1°C 45.7°F7.6°C 57.7°F14.3°C
Winds 9.0 mph 14.5 kmh Calm Calm 3.0 mph WSW4.8 kmh WSW
Wind Gusts 14.0 mph22.5 kmh -- 6.0 mph9.7 kmh
Humidity 97% 38% 66%
Pressure 30.19 in1022.4 mb 29.86 in1011.2 mb -
Precipitation 0.06 in1.5 mm - -
Hour Temp Dew Point Humidity Winds Wind Gusts Pressure Precip Precip Rate Daily Precip Total
12:00 AM 75.3°F24.1°C 57.0°F13.9°C 53% 2.0 mph W3.2 kmh W 5.0 mph8.0 kmh 29.86 in1011.2 mb - 0.00 in0.0 mm 0.00 in0.0 mm
12:30 AM 74.6°F23.7°C 51.2°F10.7°C 44% 2.8 mph WNW4.5 kmh WNW 7.0 mph11.3 kmh 29.89 in1012.2 mb - 0.00 in0.0 mm 0.00 in0.0 mm
01:00 AM 73.9°F23.3°C 47.4°F8.6°C 39% 5.2 mph W8.4 kmh W 11.0 mph17.7 kmh 29.89 in1012.2 mb - 0.00 in0.0 mm 0.00 in0.0 mm
01:30 AM 72.8°F22.7°C 45.7°F7.6°C 38% 3.6 mph W5.8 kmh W 5.0 mph8.0 kmh 29.90 in1012.5 mb - 0.00 in0.0 mm 0.00 in0.0 mm
02:00 AM 71.3°F21.8°C 47.0°F8.3°C 42% 1.5 mph W2.4 kmh W 4.0 mph6.4 kmh 29.91 in1012.9 mb - 0.00 in0.0 mm 0.00 in0.0 mm
02:30 AM 69.7°F20.9°C 48.6°F9.2°C 47% Calm Calm -- 29.92 in1013.2 mb - 0.00 in0.0 mm 0.00 in0.0 mm
03:00 AM 68.5°F20.3°C 48.0°F8.9°C 48% Calm Calm -- 29.93 in1013.5 mb - 0.00 in0.0 mm 0.00 in0.0 mm
03:30 AM 68.8°F20.4°C 50.5°F10.3°C 52% 1.1 mph W1.8 kmh W 4.0 mph6.4 kmh 29.94 in1013.9 mb - 0.00 in0.0 mm 0.00 in0.0 mm
04:00 AM 68.8°F20.4°C 51.0°F10.6°C 53% 2.7 mph W4.3 kmh W 5.0 mph8.0 kmh 29.95 in1014.2 mb - 0.00 in0.0 mm 0.00 in0.0 mm
04:30 AM 68.1°F20.1°C 51.8°F11.0°C 56% Calm Calm -- 29.97 in1014.9 mb - 0.00 in0.0 mm 0.00 in0.0 mm
05:00 AM 67.6°F19.8°C 52.3°F11.3°C 58% 1.9 mph WNW3.1 kmh WNW 5.0 mph8.0 kmh 29.97 in1014.9 mb - 0.00 in0.0 mm 0.00 in0.0 mm
05:30 AM 70.5°F21.4°C 60.2°F15.7°C 70% 3.0 mph SW4.8 kmh SW 5.0 mph8.0 kmh 30.04 in1017.3 mb - 0.00 in0.0 mm 0.01 in0.3 mm
05:40 AM 70.3°F21.3°C 60.4°F15.8°C 71% 3.0 mph SW4.8 kmh SW 5.0 mph8.0 kmh 30.05 in1017.6 mb - 0.00 in0.0 mm 0.01 in0.3 mm
05:50 AM 70.6°F21.4°C 59.1°F15.1°C 67% 3.0 mph SW4.8 kmh SW 6.0 mph9.7 kmh 30.05 in1017.6 mb - 0.00 in0.0 mm 0.01 in0.3 mm
06:00 AM 71.3°F21.8°C 59.4°F15.2°C 66% 3.0 mph SW4.8 kmh SW 3.0 mph4.8 kmh 30.05 in1017.6 mb - 0.00 in0.0 mm 0.01 in0.3 mm
06:10 AM 71.5°F21.9°C 59.1°F15.1°C 65% 2.0 mph SW3.2 kmh SW 5.0 mph8.0 kmh 30.06 in1017.9 mb - 0.01 in0.3 mm 0.02 in0.5 mm
06:20 AM 71.6°F22.0°C 59.2°F15.1°C 65% 2.0 mph SW3.2 kmh SW 3.0 mph4.8 kmh 30.06 in1017.9 mb - 0.00 in0.0 mm 0.02 in0.5 mm
06:30 AM 71.9°F22.2°C 59.9°F15.5°C 66% 2.0 mph SW3.2 kmh SW 3.0 mph4.8 kmh 30.07 in1018.3 mb - 0.00 in0.0 mm 0.02 in0.5 mm
06:40 AM 72.1°F22.3°C 60.5°F15.8°C 67% 2.0 mph SW3.2 kmh SW 3.0 mph4.8 kmh 30.07 in1018.3 mb - 0.00 in0.0 mm 0.02 in0.5 mm
06:50 AM 72.0°F22.2°C 60.5°F15.8°C 67% 3.0 mph SW4.8 kmh SW 7.0 mph11.3 kmh 30.08 in1018.6 mb - 0.00 in0.0 mm 0.02 in0.5 mm
07:00 AM 72.0°F22.2°C 60.9°F16.1°C 68% 3.0 mph SW4.8 kmh SW 6.0 mph9.7 kmh 30.09 in1019.0 mb - 0.00 in0.0 mm 0.02 in0.5 mm
07:10 AM 72.0°F22.2°C 60.4°F15.8°C 67% 3.0 mph SW4.8 kmh SW 5.0 mph8.0 kmh 30.09 in1019.0 mb - 0.00 in0.0 mm 0.02 in0.5 mm
07:20 AM 72.2°F22.3°C 59.8°F15.4°C 65% 3.0 mph SW4.8 kmh SW 6.0 mph9.7 kmh 30.09 in1019.0 mb - 0.00 in0.0 mm 0.02 in0.5 mm
07:30 AM 72.5°F22.5°C 59.2°F15.1°C 63% 3.0 mph WSW4.8 kmh WSW 5.0 mph8.0 kmh 30.10 in1019.3 mb - 0.00 in0.0 mm 0.02 in0.5 mm
07:40 AM 72.7°F22.6°C 59.8°F15.4°C 64% 3.0 mph WSW4.8 kmh WSW 5.0 mph8.0 kmh 30.10 in1019.3 mb - 0.00 in0.0 mm 0.02 in0.5 mm
07:50 AM 72.7°F22.6°C 59.4°F15.2°C 63% 6.0 mph SW9.7 kmh SW 10.0 mph16.1 kmh 30.10 in1019.3 mb - 0.00 in0.0 mm 0.02 in0.5 mm
08:00 AM 73.0°F22.8°C 59.2°F15.1°C 62% 6.0 mph WSW9.7 kmh WSW 8.0 mph12.9 kmh 30.11 in1019.6 mb - 0.00 in0.0 mm 0.02 in0.5 mm
08:10 AM 73.1°F22.8°C 57.9°F14.4°C 59% 7.0 mph WSW11.3 kmh WSW 12.0 mph19.3 kmh 30.11 in1019.6 mb - 0.00 in0.0 mm 0.02 in0.5 mm
08:20 AM 73.1°F22.8°C 57.9°F14.4°C 59% 6.0 mph WSW9.7 kmh WSW 9.0 mph14.5 kmh 30.11 in1019.6 mb - 0.00 in0.0 mm 0.02 in0.5 mm
08:30 AM 73.4°F23.0°C 58.2°F14.6°C 59% 8.0 mph WSW12.9 kmh WSW 13.0 mph20.9 kmh 30.12 in1020.0 mb - 0.00 in0.0 mm 0.02 in0.5 mm
08:40 AM 73.3°F22.9°C 58.6°F14.8°C 60% 5.0 mph WSW8.0 kmh WSW 9.0 mph14.5 kmh 30.12 in1020.0 mb - 0.00 in0.0 mm 0.02 in0.5 mm
08:50 AM 72.0°F22.2°C 60.5°F15.8°C 67% 5.0 mph SW8.0 kmh SW 7.0 mph11.3 kmh 30.13 in1020.3 mb - 0.00 in0.0 mm 0.02 in0.5 mm
09:00 AM 70.2°F21.2°C 60.3°F15.7°C 71% Calm Calm 3.0 mph4.8 kmh 30.13 in1020.3 mb - 0.00 in0.0 mm 0.02 in0.5 mm
09:10 AM 70.2°F21.2°C 60.7°F15.9°C 72% 2.0 mph SW3.2 kmh SW 3.0 mph4.8 kmh 30.13 in1020.3 mb - 0.00 in0.0 mm 0.02 in0.5 mm
09:20 AM 70.7°F21.5°C 60.8°F16.0°C 71% 2.0 mph SSW3.2 kmh SSW 3.0 mph4.8 kmh 30.13 in1020.3 mb - 0.00 in0.0 mm 0.02 in0.5 mm
09:30 AM 70.6°F21.4°C 60.3°F15.7°C 70% 3.0 mph SW4.8 kmh SW 6.0 mph9.7 kmh 30.14 in1020.7 mb - 0.00 in0.0 mm 0.02 in0.5 mm
09:40 AM 70.3°F21.3°C 60.4°F15.8°C 71% 3.0 mph WSW4.8 kmh WSW 7.0 mph11.3 kmh 30.14 in1020.7 mb - 0.00 in0.0 mm 0.02 in0.5 mm
09:50 AM 70.4°F21.3°C 59.3°F15.2°C 68% 3.0 mph W4.8 kmh W 6.0 mph9.7 kmh 30.14 in1020.7 mb - 0.00 in0.0 mm 0.02 in0.5 mm
10:00 AM 68.9°F20.5°C 57.9°F14.4°C 68% 1.6 mph WNW2.6 kmh WNW 3.0 mph4.8 kmh 30.06 in1017.9 mb - 0.00 in0.0 mm 0.03 in0.8 mm
10:10 AM 71.3°F21.8°C 55.3°F12.9°C 57% 2.0 mph W3.2 kmh W 6.0 mph9.7 kmh 30.14 in1020.7 mb - 0.00 in0.0 mm 0.02 in0.5 mm
10:20 AM 72.1°F22.3°C 57.0°F13.9°C 59% 6.0 mph W9.7 kmh W 10.0 mph16.1 kmh 30.14 in1020.7 mb - 0.00 in0.0 mm 0.02 in0.5 mm
10:30 AM 72.1°F22.3°C 57.0°F13.9°C 59% 7.0 mph WSW11.3 kmh WSW 10.0 mph16.1 kmh 30.14 in1020.7 mb - 0.00 in0.0 mm 0.02 in0.5 mm
10:40 AM 72.2°F22.3°C 58.0°F14.4°C 61% 6.0 mph WSW9.7 kmh WSW 12.0 mph19.3 kmh 30.14 in1020.7 mb - 0.00 in0.0 mm 0.02 in0.5 mm
10:50 AM 72.9°F22.7°C 59.1°F15.1°C 62% 9.0 mph WSW14.5 kmh WSW 12.0 mph19.3 kmh 30.15 in1021.0 mb - 0.00 in0.0 mm 0.02 in0.5 mm
11:00 AM 73.0°F22.8°C 59.2°F15.1°C 62% 9.0 mph WSW14.5 kmh WSW 13.0 mph20.9 kmh 30.15 in1021.0 mb - 0.00 in0.0 mm 0.02 in0.5 mm
11:10 AM 72.3°F22.4°C 56.7°F13.7°C 58% 8.0 mph WSW12.9 kmh WSW 14.0 mph22.5 kmh 30.15 in1021.0 mb - 0.00 in0.0 mm 0.02 in0.5 mm
11:20 AM 72.2°F22.3°C 56.6°F13.7°C 58% 7.0 mph W11.3 kmh W 10.0 mph16.1 kmh 30.16 in1021.3 mb - 0.00 in0.0 mm 0.02 in0.5 mm
11:30 AM 70.8°F21.6°C 50.1°F10.1°C 48% 1.1 mph NNE1.8 kmh NNE 6.0 mph9.7 kmh 30.07 in1018.3 mb - 0.00 in0.0 mm 0.03 in0.8 mm
11:40 AM 72.4°F22.4°C 57.3°F14.1°C 59% 7.0 mph SW11.3 kmh SW 10.0 mph16.1 kmh 30.16 in1021.3 mb - 0.00 in0.0 mm 0.02 in0.5 mm
11:50 AM 72.0°F22.2°C 57.4°F14.1°C 60% 6.0 mph WSW9.7 kmh WSW 10.0 mph16.1 kmh 30.16 in1021.3 mb - 0.00 in0.0 mm 0.02 in0.5 mm
12:00 PM 71.6°F22.0°C 58.4°F14.7°C 63% 6.0 mph SW9.7 kmh SW 10.0 mph16.1 kmh 30.16 in1021.3 mb - 0.00 in0.0 mm 0.02 in0.5 mm
12:10 PM 71.4°F21.9°C 57.7°F14.3°C 62% 8.0 mph WSW12.9 kmh WSW 10.0 mph16.1 kmh 30.16 in1021.3 mb - 0.00 in0.0 mm 0.02 in0.5 mm
12:20 PM 71.5°F21.9°C 56.4°F13.6°C 59% 8.0 mph WSW12.9 kmh WSW 10.0 mph16.1 kmh 30.16 in1021.3 mb - 0.00 in0.0 mm 0.02 in0.5 mm
12:30 PM 71.9°F22.2°C 57.3°F14.1°C 60% 8.0 mph WSW12.9 kmh WSW 13.0 mph20.9 kmh 30.17 in1021.7 mb - 0.00 in0.0 mm 0.02 in0.5 mm
12:40 PM 71.7°F22.1°C 58.4°F14.7°C 63% 6.0 mph SW9.7 kmh SW 9.0 mph14.5 kmh 30.17 in1021.7 mb - 0.00 in0.0 mm 0.02 in0.5 mm
12:50 PM 71.4°F21.9°C 59.0°F15.0°C 65% 6.0 mph WSW9.7 kmh WSW 10.0 mph16.1 kmh 30.17 in1021.7 mb - 0.00 in0.0 mm 0.02 in0.5 mm
01:00 PM 71.6°F22.0°C 59.2°F15.1°C 65% 6.0 mph WSW9.7 kmh WSW 8.0 mph12.9 kmh 30.17 in1021.7 mb - 0.00 in0.0 mm 0.02 in0.5 mm
01:10 PM 71.6°F22.0°C 59.6°F15.3°C 66% 5.0 mph SW8.0 kmh SW 7.0 mph11.3 kmh 30.17 in1021.7 mb - 0.00 in0.0 mm 0.02 in0.5 mm
01:20 PM 71.8°F22.1°C 60.2°F15.7°C 67% 3.0 mph WSW4.8 kmh WSW 8.0 mph12.9 kmh 30.17 in1021.7 mb - 0.00 in0.0 mm 0.02 in0.5 mm
01:30 PM 71.3°F21.8°C 60.6°F15.9°C 69% 1.0 mph W1.6 kmh W 3.0 mph4.8 kmh 30.17 in1021.7 mb - 0.00 in0.0 mm 0.02 in0.5 mm
01:40 PM 71.9°F22.2°C 62.8°F17.1°C 73% 2.0 mph W3.2 kmh W 3.0 mph4.8 kmh 30.17 in1021.7 mb - 0.00 in0.0 mm 0.02 in0.5 mm
01:50 PM 72.0°F22.2°C 61.7°F16.5°C 70% 1.0 mph W1.6 kmh W 2.0 mph3.2 kmh 30.17 in1021.7 mb - 0.00 in0.0 mm 0.02 in0.5 mm
02:00 PM 72.2°F22.3°C 61.0°F16.1°C 68% 2.0 mph WSW3.2 kmh WSW 6.0 mph9.7 kmh 30.18 in1022.0 mb - 0.00 in0.0 mm 0.02 in0.5 mm
02:10 PM 72.1°F22.3°C 60.5°F15.8°C 67% 2.0 mph WSW3.2 kmh WSW 3.0 mph4.8 kmh 30.17 in1021.7 mb - 0.00 in0.0 mm 0.02 in0.5 mm
02:20 PM 72.1°F22.3°C 61.0°F16.1°C 68% 2.0 mph SW3.2 kmh SW 3.0 mph4.8 kmh 30.17 in1021.7 mb - 0.00 in0.0 mm 0.02 in0.5 mm
02:30 PM 71.9°F22.2°C 60.8°F16.0°C 68% 1.0 mph SW1.6 kmh SW 3.0 mph4.8 kmh 30.17 in1021.7 mb - 0.00 in0.0 mm 0.02 in0.5 mm
02:40 PM 71.5°F21.9°C 60.8°F16.0°C 69% 2.0 mph SW3.2 kmh SW 3.0 mph4.8 kmh 30.18 in1022.0 mb - 0.00 in0.0 mm 0.02 in0.5 mm
02:50 PM 71.2°F21.8°C 61.7°F16.5°C 72% Calm Calm 2.0 mph3.2 kmh 30.17 in1021.7 mb - 0.00 in0.0 mm 0.02 in0.5 mm
03:00 PM 70.2°F21.2°C 58.7°F14.8°C 67% 5.0 mph W8.0 kmh W 9.0 mph14.5 kmh 30.18 in1022.0 mb - 0.00 in0.0 mm 0.02 in0.5 mm
03:10 PM 70.6°F21.4°C 58.6°F14.8°C 66% 7.0 mph W11.3 kmh W 8.0 mph12.9 kmh 30.18 in1022.0 mb - 0.00 in0.0 mm 0.02 in0.5 mm
03:20 PM 71.3°F21.8°C 57.6°F14.2°C 62% 5.0 mph W8.0 kmh W 8.0 mph12.9 kmh 30.18 in1022.0 mb - 0.00 in0.0 mm 0.02 in0.5 mm
03:30 PM 66.8°F19.3°C 53.4°F11.9°C 62% 1.8 mph W2.9 kmh W 9.0 mph14.5 kmh 30.11 in1019.6 mb - 0.00 in0.0 mm 0.03 in0.8 mm
03:40 PM 72.1°F22.3°C 57.0°F13.9°C 59% 3.0 mph WSW4.8 kmh WSW 6.0 mph9.7 kmh 30.18 in1022.0 mb - 0.00 in0.0 mm 0.02 in0.5 mm
03:50 PM 71.8°F22.1°C 56.2°F13.4°C 58% 3.0 mph W4.8 kmh W 6.0 mph9.7 kmh 30.18 in1022.0 mb - 0.00 in0.0 mm 0.02 in0.5 mm
04:00 PM 70.7°F21.5°C 58.8°F14.9°C 66% 7.0 mph WSW11.3 kmh WSW 10.0 mph16.1 kmh 30.18 in1022.0 mb - 0.00 in0.0 mm 0.02 in0.5 mm
04:10 PM 68.7°F20.4°C 58.1°F14.5°C 69% 6.0 mph W9.7 kmh W 10.0 mph16.1 kmh 30.18 in1022.0 mb - 0.00 in0.0 mm 0.02 in0.5 mm
04:20 PM 68.4°F20.2°C 58.7°F14.8°C 71% 6.0 mph W9.7 kmh W 9.0 mph14.5 kmh 30.18 in1022.0 mb - 0.00 in0.0 mm 0.02 in0.5 mm
04:30 PM 68.8°F20.4°C 59.8°F15.4°C 73% 3.0 mph W4.8 kmh W 8.0 mph12.9 kmh 30.18 in1022.0 mb - 0.00 in0.0 mm 0.02 in0.5 mm
04:40 PM 69.2°F20.7°C 59.4°F15.2°C 71% 5.0 mph W8.0 kmh W 8.0 mph12.9 kmh 30.18 in1022.0 mb - 0.00 in0.0 mm 0.02 in0.5 mm
04:50 PM 69.5°F20.8°C 58.9°F14.9°C 69% 6.0 mph W9.7 kmh W 9.0 mph14.5 kmh 30.17 in1021.7 mb - 0.00 in0.0 mm 0.02 in0.5 mm
05:00 PM 69.6°F20.9°C 57.7°F14.3°C 66% 6.0 mph W9.7 kmh W 9.0 mph14.5 kmh 30.17 in1021.7 mb - 0.00 in0.0 mm 0.02 in0.5 mm
05:10 PM 69.5°F20.8°C 57.2°F14.0°C 65% 5.0 mph WSW8.0 kmh WSW 8.0 mph12.9 kmh 30.18 in1022.0 mb - 0.00 in0.0 mm 0.02 in0.5 mm
05:20 PM 69.5°F20.8°C 58.5°F14.7°C 68% 7.0 mph SW11.3 kmh SW 9.0 mph14.5 kmh 30.18 in1022.0 mb - 0.00 in0.0 mm 0.02 in0.5 mm
05:30 PM 68.6°F20.3°C 58.4°F14.7°C 70% 7.0 mph SW11.3 kmh SW 9.0 mph14.5 kmh 30.18 in1022.0 mb - 0.01 in0.3 mm 0.02 in0.5 mm
05:40 PM 67.8°F19.9°C 57.2°F14.0°C 69% 6.0 mph SW9.7 kmh SW 10.0 mph16.1 kmh 30.18 in1022.0 mb - 0.00 in0.0 mm 0.02 in0.5 mm
05:50 PM 68.5°F20.3°C 56.3°F13.5°C 65% 6.0 mph WSW9.7 kmh WSW 8.0 mph12.9 kmh 30.18 in1022.0 mb - 0.00 in0.0 mm 0.02 in0.5 mm
06:00 PM 69.0°F20.6°C 55.0°F12.8°C 61% 2.0 mph SW3.2 kmh SW 3.0 mph4.8 kmh 30.18 in1022.0 mb - 0.00 in0.0 mm 0.02 in0.5 mm
06:10 PM 68.6°F20.3°C 55.1°F12.8°C 62% 2.0 mph SW3.2 kmh SW 5.0 mph8.0 kmh 30.19 in1022.4 mb - 0.00 in0.0 mm 0.02 in0.5 mm
06:20 PM 68.3°F20.2°C 54.3°F12.4°C 61% 3.0 mph SW4.8 kmh SW 5.0 mph8.0 kmh 30.19 in1022.4 mb - 0.00 in0.0 mm 0.02 in0.5 mm
06:30 PM 68.2°F20.1°C 55.6°F13.1°C 64% 1.0 mph SW1.6 kmh SW 3.0 mph4.8 kmh 30.19 in1022.4 mb - 0.00 in0.0 mm 0.02 in0.5 mm
06:40 PM 68.0°F20.0°C 56.2°F13.4°C 66% Calm Calm -- 30.19 in1022.4 mb - 0.00 in0.0 mm 0.02 in0.5 mm
06:50 PM 67.8°F19.9°C 55.6°F13.1°C 65% 1.0 mph SW1.6 kmh SW 3.0 mph4.8 kmh 30.19 in1022.4 mb - 0.00 in0.0 mm 0.02 in0.5 mm
07:00 PM 67.7°F19.8°C 55.9°F13.3°C 66% 1.0 mph SW1.6 kmh SW 2.0 mph3.2 kmh 30.19 in1022.4 mb - 0.00 in0.0 mm 0.02 in0.5 mm
07:10 PM 67.5°F19.7°C 54.9°F12.7°C 64% Calm Calm 3.0 mph4.8 kmh 30.19 in1022.4 mb - 0.00 in0.0 mm 0.02 in0.5 mm
07:30 PM 62.6°F17.0°C 61.4°F16.3°C 96% Calm Calm -- 30.12 in1020.0 mb - 0.00 in0.0 mm 0.06 in1.5 mm
08:00 PM 62.0°F16.7°C 60.6°F15.9°C 95% Calm Calm -- 30.13 in1020.3 mb - 0.00 in0.0 mm 0.06 in1.5 mm
08:30 PM 61.8°F16.6°C 60.4°F15.8°C 95% Calm Calm -- 30.14 in1020.7 mb - 0.00 in0.0 mm 0.06 in1.5 mm
09:00 PM 61.6°F16.4°C 60.4°F15.8°C 96% Calm Calm -- 30.13 in1020.3 mb - 0.00 in0.0 mm 0.06 in1.5 mm
09:30 PM 61.5°F16.4°C 60.6°F15.9°C 97% Calm Calm -- 30.14 in1020.7 mb - 0.00 in0.0 mm 0.06 in1.5 mm
10:00 PM 60.5°F15.8°C 59.4°F15.2°C 96% 0.8 mph WSW1.3 kmh WSW 3.0 mph4.8 kmh 30.14 in1020.7 mb - 0.00 in0.0 mm 0.06 in1.5 mm
10:30 PM 60.2°F15.7°C 58.8°F14.9°C 95% Calm Calm -- 30.15 in1021.0 mb - 0.00 in0.0 mm 0.06 in1.5 mm
11:00 PM 59.9°F15.5°C 57.9°F14.4°C 93% Calm Calm -- 30.15 in1021.0 mb - 0.00 in0.0 mm 0.02 in0.5 mm
11:30 PM 59.6°F15.3°C 57.6°F14.2°C 93% Calm Calm -- 30.15 in1021.0 mb - 0.00 in0.0 mm 0.02 in0.5 mm